Aérodrome :
LOGIN :

S'inscrire | Disclaimer

   EN    FR    IT 

 










Légende :    VFR   VFR Marginal   IFR   IFR Intensif   IFR Très Intensif
Visi : 
Plafond : 
>= 8 km
>= 3000ft
5 à 8 km
1000 à 3000 ft
1500m à 5 km
500 à 1000 ft
800 à 1500m
200 à 500 ft
< 800m
< 200 ft
Symboles :   Orages  Brouillard  Fortes neiges  Fortes précipitations  Vent > 20 kt
SIGMETs :   Divers  Orages  Givrage  Turbulence  Onde Orograph.  Cendres Volcan.






- Altitude de l'aérodrome : 125 ft
- Code IATA : MGL


EDLN - Mönchengladbach

DERNIER METAR :
  • 211350Z 03010KT 350V070 9999 BKN049 10/M01 Q1023

METARs EXPIRÉS :
  • 211320Z 04007KT 350V070 9999 -RA BKN048 09/M01 Q1023
  • 211250Z 36006KT 330V040 9999 BKN045 09/M00 Q1023
  • 211220Z 35010KT 330V030 9999 BKN040 10/01 Q1023
  • 211150Z 05008KT 350V090 9999 SCT040 09/00 Q1024
  • 211120Z 03009KT 360V090 9999 SCT037 08/00 Q1023
  • 211050Z 02007KT 340V070 9999 SCT031 08/00 Q1023
  • 211020Z 05009KT 350V090 9999 FEW027 BKN032 08/00 Q1023
  • 210950Z 05011KT 360V090 9999 SCT026 BKN030 07/01 Q1023
  • 210920Z 04010KT 340V080 9999 BKN023 06/02 Q1023

TAF TAF EDLN
Valide du 21 à 12h jusqu'au 21 à 21h UTC


211100Z 2112/2121 03011KT 9999 BKN020
PROB30
TEMPO 2112/2116 SHRA BKN020CB
BECMG 2117/2120 01005KT



MET'MAP, la Météo Aéronautique d'un coup d'oeil ! - Copyright ORBIFLY Décembre 2007 - Disclaimer

ORBIFLY MET'MAP TEAM :

Programmation & Développement : Alexandra Zaïnal
Sur une idée originale de : Baudouin d'Aumeries
Soutien technique & logistique : Manuel Goepfert
Assistance : Marc-Olivier Méhu




SOURCES & CREDITS :

   NOAA